Nesbitt, Texas
Current Conditions -  °F | °C
As of 7:35 AM on Thursday 23 Oct 2014 (Local Time) from KASL Reporting Station
Clear Clear  
Wind Chill: 58°   Ceiling: Unl
Heat Index: 58°   Visibility: 10mi
Dew Point: 55°   Wind: 3mph
Humidity: 87%   Direction: 340°NNW
Pressure: 30.17"   Gusts: NA
Location:  32.4675°N, 94.3321°W
Report Text: KASL 231235Z AUTO 34003KT 10SM CLR 15/13 A3017 RMK AO1 T01460125
Loading
Personal Weather Stations






























Interactive Weather Map
Tropical Storm Tracking
New forecast layout! Learn more

10-Day Weather Forecast

Advertisements
Track Severe Weather on mobile